Time,TemperatureF,DewpointF,PressureIn,WindDirection,WindDirectionDegrees,WindSpeedMPH,WindSpeedGustMPH,Humidity,HourlyPrecipIn,Conditions,Clouds,dailyrainin,SoftwareType,DateUTC
2013-06-15 00:01:00,50.3,45.3,30.01,SE,135,0.2,0.4,83,0.00,,,0.00,WUHU216HW,2013-06-15 07:01:00,
2013-06-15 00:06:00,50.3,45.3,30.00,SE,135,0.0,0.4,83,0.00,,,0.00,WUHU216HW,2013-06-15 07:06:00,
2013-06-15 00:11:00,50.2,45.6,30.00,SE,135,0.2,0.4,84,0.00,,,0.00,WUHU216HW,2013-06-15 07:11:00,
2013-06-15 00:16:00,50.2,45.6,30.00,SE,135,0.0,0.2,84,0.00,,,0.00,WUHU216HW,2013-06-15 07:16:00,
2013-06-15 00:21:00,50.0,45.4,30.00,SE,135,0.2,0.4,84,0.00,,,0.00,WUHU216HW,2013-06-15 07:21:00,
2013-06-15 00:26:00,49.8,45.2,30.00,SE,135,0.4,0.4,84,0.00,,,0.00,WUHU216HW,2013-06-15 07:26:00,
2013-06-15 00:31:00,49.8,45.2,30.00,SE,135,0.0,0.4,84,0.00,,,0.00,WUHU216HW,2013-06-15 07:31:00,
2013-06-15 00:36:00,49.6,45.0,29.99,SE,135,0.2,0.4,84,0.00,,,0.00,WUHU216HW,2013-06-15 07:36:00,
2013-06-15 00:41:00,49.6,45.0,29.99,SE,135,0.0,0.4,84,0.00,,,0.00,WUHU216HW,2013-06-15 07:41:00,
2013-06-15 00:46:00,49.6,45.0,29.99,SE,135,0.2,0.9,84,0.00,,,0.00,WUHU216HW,2013-06-15 07:46:00,
2013-06-15 00:51:00,49.6,45.0,29.98,SE,135,0.4,0.9,84,0.00,,,0.00,WUHU216HW,2013-06-15 07:51:00,
2013-06-15 00:56:00,49.6,45.3,29.98,SE,135,0.0,0.7,85,0.00,,,0.00,WUHU216HW,2013-06-15 07:56:00,
2013-06-15 01:01:00,49.6,45.3,29.98,SE,135,0.2,0.4,85,0.00,,,0.00,WUHU216HW,2013-06-15 08:01:00,
2013-06-15 01:06:00,49.4,45.1,29.98,SE,135,0.4,0.7,85,0.00,,,0.00,WUHU216HW,2013-06-15 08:06:00,
2013-06-15 01:11:00,49.3,45.0,29.98,SE,135,0.4,0.7,85,0.00,,,0.00,WUHU216HW,2013-06-15 08:11:00,
2013-06-15 01:16:00,49.3,45.0,29.98,SE,135,0.0,0.7,85,0.00,,,0.00,WUHU216HW,2013-06-15 08:16:00,
2013-06-15 01:21:00,49.3,45.0,29.97,SE,135,0.2,0.7,85,0.00,,,0.00,WUHU216HW,2013-06-15 08:21:00,
2013-06-15 01:26:00,49.3,45.0,29.97,SE,135,0.2,0.7,85,0.00,,,0.00,WUHU216HW,2013-06-15 08:26:00,
2013-06-15 01:31:00,49.3,45.0,29.97,SE,135,0.0,0.7,85,0.00,,,0.00,WUHU216HW,2013-06-15 08:31:00,
2013-06-15 01:36:00,49.3,45.0,29.97,SE,135,0.0,0.7,85,0.00,,,0.00,WUHU216HW,2013-06-15 08:36:00,
2013-06-15 01:41:00,49.1,44.8,29.97,SE,135,0.4,0.7,85,0.00,,,0.00,WUHU216HW,2013-06-15 08:41:00,
2013-06-15 01:46:00,48.9,44.6,29.97,SE,135,0.4,0.7,85,0.00,,,0.00,WUHU216HW,2013-06-15 08:46:00,
2013-06-15 01:51:00,48.5,44.2,29.97,SE,135,0.0,0.7,85,0.00,,,0.00,WUHU216HW,2013-06-15 08:51:00,
2013-06-15 01:56:00,48.4,44.1,29.96,SE,135,0.0,0.7,85,0.00,,,0.00,WUHU216HW,2013-06-15 08:56:00,
2013-06-15 02:01:00,48.4,44.4,29.96,SE,135,0.0,0.0,86,0.00,,,0.00,WUHU216HW,2013-06-15 09:01:00,
2013-06-15 02:06:00,48.2,44.2,29.96,SE,135,0.4,0.4,86,0.00,,,0.00,WUHU216HW,2013-06-15 09:06:00,
2013-06-15 02:11:00,48.0,43.7,29.96,SE,135,0.0,0.4,85,0.00,,,0.00,WUHU216HW,2013-06-15 09:11:00,
2013-06-15 02:16:00,47.8,43.5,29.96,SE,135,0.0,0.4,85,0.00,,,0.00,WUHU216HW,2013-06-15 09:16:00,
2013-06-15 02:21:00,47.8,43.5,29.96,SE,135,0.0,0.7,85,0.00,,,0.00,WUHU216HW,2013-06-15 09:21:00,
2013-06-15 02:26:00,47.8,43.5,29.96,SE,135,0.0,0.7,85,0.00,,,0.00,WUHU216HW,2013-06-15 09:26:00,
2013-06-15 02:31:00,47.6,43.3,29.96,SE,135,0.0,0.4,85,0.00,,,0.00,WUHU216HW,2013-06-15 09:31:00,
2013-06-15 02:36:00,47.6,43.3,29.96,SE,135,0.4,0.4,85,0.00,,,0.00,WUHU216HW,2013-06-15 09:36:00,
2013-06-15 02:41:00,47.6,43.3,29.96,SE,135,0.4,0.4,85,0.00,,,0.00,WUHU216HW,2013-06-15 09:41:00,
2013-06-15 02:46:00,47.6,43.3,29.95,SE,135,0.7,0.9,85,0.00,,,0.00,WUHU216HW,2013-06-15 09:46:00,
2013-06-15 02:51:00,47.6,43.6,29.95,SE,135,0.0,0.9,86,0.00,,,0.00,WUHU216HW,2013-06-15 09:51:00,
2013-06-15 02:56:00,47.6,43.3,29.95,SE,135,0.0,0.7,85,0.00,,,0.00,WUHU216HW,2013-06-15 09:56:00,
2013-06-15 03:01:00,47.5,43.2,29.95,SE,135,0.0,0.4,85,0.00,,,0.00,WUHU216HW,2013-06-15 10:01:00,
2013-06-15 03:06:00,47.3,43.3,29.95,SE,135,0.0,0.4,86,0.00,,,0.00,WUHU216HW,2013-06-15 10:06:00,
2013-06-15 03:11:00,47.3,43.3,29.95,SE,135,0.2,0.4,86,0.00,,,0.00,WUHU216HW,2013-06-15 10:11:00,
2013-06-15 03:16:00,47.3,43.3,29.95,SE,135,0.0,0.4,86,0.00,,,0.00,WUHU216HW,2013-06-15 10:16:00,
2013-06-15 03:21:00,47.3,43.3,29.95,SE,135,0.0,0.4,86,0.00,,,0.00,WUHU216HW,2013-06-15 10:21:00,
2013-06-15 03:26:00,47.3,43.3,29.95,SE,135,0.0,0.0,86,0.00,,,0.00,WUHU216HW,2013-06-15 10:26:00,
2013-06-15 03:31:00,47.5,43.8,29.95,SE,135,0.2,0.4,87,0.00,,,0.00,WUHU216HW,2013-06-15 10:31:00,
2013-06-15 03:36:00,47.5,43.8,29.95,SE,135,0.0,0.4,87,0.00,,,0.00,WUHU216HW,2013-06-15 10:36:00,
2013-06-15 03:41:00,47.5,43.8,29.94,SE,135,0.0,0.4,87,0.00,,,0.00,WUHU216HW,2013-06-15 10:41:00,
2013-06-15 03:46:00,47.5,43.8,29.94,SE,135,0.2,0.7,87,0.00,,,0.00,WUHU216HW,2013-06-15 10:46:00,
2013-06-15 03:51:00,47.5,43.8,29.94,East,90,0.7,0.7,87,0.00,,,0.00,WUHU216HW,2013-06-15 10:51:00,
2013-06-15 03:56:00,47.3,43.6,29.94,ENE,68,0.0,0.7,87,0.00,,,0.00,WUHU216HW,2013-06-15 10:56:00,
2013-06-15 04:01:00,47.3,43.6,29.94,NNW,338,0.0,0.7,87,0.00,,,0.00,WUHU216HW,2013-06-15 11:01:00,
2013-06-15 04:06:00,47.3,43.6,29.94,NNW,338,0.0,0.4,87,0.00,,,0.00,WUHU216HW,2013-06-15 11:06:00,
2013-06-15 04:11:00,47.1,43.4,29.94,NNW,338,0.0,0.4,87,0.00,,,0.00,WUHU216HW,2013-06-15 11:11:00,
2013-06-15 04:16:00,47.1,43.4,29.94,NNW,338,0.0,0.4,87,0.00,,,0.00,WUHU216HW,2013-06-15 11:16:00,
2013-06-15 04:21:00,47.1,43.4,29.93,North,0,0.0,0.7,87,0.00,,,0.00,WUHU216HW,2013-06-15 11:21:00,
2013-06-15 04:26:00,46.9,43.2,29.94,North,0,0.2,0.7,87,0.00,,,0.00,WUHU216HW,2013-06-15 11:26:00,
2013-06-15 04:31:00,46.9,43.2,29.93,North,0,0.0,0.4,87,0.00,,,0.00,WUHU216HW,2013-06-15 11:31:00,
2013-06-15 04:36:00,46.9,43.2,29.94,North,0,0.0,0.4,87,0.00,,,0.00,WUHU216HW,2013-06-15 11:36:00,
2013-06-15 04:41:00,46.7,43.0,29.93,NNW,338,0.4,0.4,87,0.00,,,0.00,WUHU216HW,2013-06-15 11:41:00,
2013-06-15 04:46:00,46.7,43.0,29.93,NNW,338,0.0,0.4,87,0.00,,,0.00,WUHU216HW,2013-06-15 11:46:00,
2013-06-15 04:51:00,46.7,43.0,29.93,NNW,338,0.2,0.4,87,0.00,,,0.00,WUHU216HW,2013-06-15 11:51:00,
2013-06-15 04:56:00,46.7,43.0,29.93,NNW,338,0.4,0.4,87,0.00,,,0.00,WUHU216HW,2013-06-15 11:56:00,
2013-06-15 05:01:00,46.7,43.0,29.93,NNW,338,0.2,0.4,87,0.00,,,0.00,WUHU216HW,2013-06-15 12:01:00,
2013-06-15 05:06:00,46.6,42.9,29.93,NNW,338,0.0,0.4,87,0.00,,,0.00,WUHU216HW,2013-06-15 12:06:00,
2013-06-15 05:11:00,46.6,42.9,29.93,NNW,338,0.0,0.4,87,0.00,,,0.00,WUHU216HW,2013-06-15 12:11:00,
2013-06-15 05:16:00,46.6,43.2,29.93,NNW,338,0.0,0.0,88,0.00,,,0.00,WUHU216HW,2013-06-15 12:16:00,
2013-06-15 05:21:00,46.4,43.0,29.93,NNW,338,0.0,0.4,88,0.00,,,0.00,WUHU216HW,2013-06-15 12:21:00,
2013-06-15 05:26:00,46.4,43.0,29.93,NNW,338,0.0,0.4,88,0.00,,,0.00,WUHU216HW,2013-06-15 12:26:00,
2013-06-15 05:31:00,46.4,43.0,29.93,NNW,338,0.0,0.4,88,0.00,,,0.00,WUHU216HW,2013-06-15 12:31:00,
2013-06-15 05:36:00,46.4,43.0,29.93,NNW,338,0.0,0.0,88,0.00,,,0.00,WUHU216HW,2013-06-15 12:36:00,
2013-06-15 05:41:00,46.4,43.0,29.93,NNW,338,0.2,0.2,88,0.00,,,0.00,WUHU216HW,2013-06-15 12:41:00,
2013-06-15 05:46:00,46.4,43.0,29.93,North,0,0.0,0.4,88,0.00,,,0.00,WUHU216HW,2013-06-15 12:46:00,
2013-06-15 05:51:00,46.4,43.0,29.93,North,0,0.0,0.4,88,0.00,,,0.00,WUHU216HW,2013-06-15 12:51:00,
2013-06-15 05:56:00,46.4,43.0,29.93,North,0,0.0,0.0,88,0.00,,,0.00,WUHU216HW,2013-06-15 12:56:00,
2013-06-15 06:01:00,46.4,43.0,29.93,North,0,0.0,0.0,88,0.00,,,0.00,WUHU216HW,2013-06-15 13:01:00,
2013-06-15 06:06:00,46.4,43.0,29.93,North,0,0.4,0.7,88,0.00,,,0.00,WUHU216HW,2013-06-15 13:06:00,
2013-06-15 06:11:00,46.4,43.0,29.93,North,0,0.0,0.7,88,0.00,,,0.00,WUHU216HW,2013-06-15 13:11:00,
2013-06-15 06:16:00,46.4,43.0,29.93,North,0,0.2,0.4,88,0.00,,,0.00,WUHU216HW,2013-06-15 13:16:00,
2013-06-15 06:21:00,46.4,43.0,29.93,North,0,0.0,0.4,88,0.00,,,0.00,WUHU216HW,2013-06-15 13:21:00,
2013-06-15 06:26:00,46.6,43.2,29.93,NNW,338,0.0,0.4,88,0.00,,,0.00,WUHU216HW,2013-06-15 13:26:00,
2013-06-15 06:31:00,46.6,43.2,29.93,NNW,338,0.0,0.4,88,0.00,,,0.00,WUHU216HW,2013-06-15 13:31:00,
2013-06-15 06:36:00,46.7,43.3,29.93,NNW,338,0.0,0.4,88,0.00,,,0.00,WUHU216HW,2013-06-15 13:36:00,
2013-06-15 06:41:00,46.9,43.5,29.92,NNW,338,0.0,0.2,88,0.00,,,0.00,WUHU216HW,2013-06-15 13:41:00,
2013-06-15 06:46:00,46.9,43.5,29.93,NNW,338,0.0,0.2,88,0.00,,,0.00,WUHU216HW,2013-06-15 13:46:00,
2013-06-15 06:51:00,47.1,43.7,29.92,NNW,338,0.0,0.0,88,0.00,,,0.00,WUHU216HW,2013-06-15 13:51:00,
2013-06-15 06:56:00,47.1,43.7,29.92,NNW,338,0.0,0.0,88,0.00,,,0.00,WUHU216HW,2013-06-15 13:56:00,
2013-06-15 07:01:00,47.3,43.9,29.92,NNW,338,0.0,0.0,88,0.00,,,0.00,WUHU216HW,2013-06-15 14:01:00,
2013-06-15 07:06:00,47.5,44.4,29.92,NNW,338,0.0,0.0,89,0.00,,,0.00,WUHU216HW,2013-06-15 14:06:00,
2013-06-15 07:11:00,47.6,44.5,29.92,NNW,338,0.0,0.0,89,0.00,,,0.00,WUHU216HW,2013-06-15 14:11:00,
2013-06-15 07:16:00,47.8,44.7,29.92,NNW,338,0.0,0.0,89,0.00,,,0.00,WUHU216HW,2013-06-15 14:16:00,
2013-06-15 07:21:00,47.8,44.7,29.92,NNW,338,0.0,0.0,89,0.00,,,0.00,WUHU216HW,2013-06-15 14:21:00,
2013-06-15 07:26:00,48.0,44.9,29.92,ENE,68,0.0,0.2,89,0.00,,,0.00,WUHU216HW,2013-06-15 14:26:00,
2013-06-15 07:31:00,48.4,45.3,29.92,SE,135,0.4,1.3,89,0.00,,,0.00,WUHU216HW,2013-06-15 14:31:00,
2013-06-15 07:36:00,48.7,45.9,29.92,SE,135,1.1,2.2,90,0.00,,,0.00,WUHU216HW,2013-06-15 14:36:00,
2013-06-15 07:41:00,49.1,46.3,29.92,SE,135,0.4,2.2,90,0.00,,,0.00,WUHU216HW,2013-06-15 14:41:00,
2013-06-15 07:46:00,49.4,46.6,29.92,SE,135,1.3,1.3,90,0.00,,,0.00,WUHU216HW,2013-06-15 14:46:00,
2013-06-15 07:51:00,50.0,47.1,29.91,SSE,158,1.1,1.3,90,0.00,,,0.00,WUHU216HW,2013-06-15 14:51:00,
2013-06-15 07:56:00,50.2,47.3,29.91,South,180,1.8,1.8,90,0.00,,,0.00,WUHU216HW,2013-06-15 14:56:00,
2013-06-15 08:01:00,50.5,47.9,29.91,SW,225,1.8,2.2,91,0.00,,,0.00,WUHU216HW,2013-06-15 15:01:00,
2013-06-15 08:06:00,50.9,48.3,29.91,SW,225,1.8,2.2,91,0.00,,,0.00,WUHU216HW,2013-06-15 15:06:00,
2013-06-15 08:11:00,51.4,48.5,29.92,SSW,203,1.6,1.8,90,0.00,,,0.00,WUHU216HW,2013-06-15 15:11:00,
2013-06-15 08:16:00,51.8,48.9,29.92,SSW,203,2.0,2.0,90,0.00,,,0.00,WUHU216HW,2013-06-15 15:16:00,
2013-06-15 08:21:00,52.3,49.1,29.92,South,180,2.0,2.2,89,0.00,,,0.00,WUHU216HW,2013-06-15 15:21:00,
2013-06-15 08:26:00,52.9,49.7,29.92,SSW,203,1.8,2.2,89,0.00,,,0.00,WUHU216HW,2013-06-15 15:26:00,
2013-06-15 08:31:00,53.2,49.7,29.92,SSW,203,1.8,2.2,88,0.00,,,0.00,WUHU216HW,2013-06-15 15:31:00,
2013-06-15 08:36:00,53.6,49.8,29.92,SSW,203,1.1,1.8,87,0.00,,,0.00,WUHU216HW,2013-06-15 15:36:00,
2013-06-15 08:41:00,53.9,49.8,29.92,South,180,1.1,1.8,86,0.00,,,0.00,WUHU216HW,2013-06-15 15:41:00,
2013-06-15 08:46:00,54.3,50.2,29.92,South,180,1.1,2.0,86,0.00,,,0.00,WUHU216HW,2013-06-15 15:46:00,
2013-06-15 08:51:00,54.7,50.3,29.92,SSE,158,1.1,2.0,85,0.00,,,0.00,WUHU216HW,2013-06-15 15:51:00,
2013-06-15 08:56:00,55.0,50.3,29.92,SSW,203,1.1,1.8,84,0.00,,,0.00,WUHU216HW,2013-06-15 15:56:00,
2013-06-15 09:01:00,55.4,50.7,29.92,SSW,203,1.8,2.2,84,0.00,,,0.00,WUHU216HW,2013-06-15 16:01:00,
2013-06-15 09:06:00,55.7,50.6,29.92,SSW,203,2.5,2.5,83,0.00,,,0.00,WUHU216HW,2013-06-15 16:06:00,
2013-06-15 09:11:00,56.3,51.2,29.92,SSW,203,1.8,2.9,83,0.00,,,0.00,WUHU216HW,2013-06-15 16:11:00,
2013-06-15 09:16:00,56.6,51.5,29.91,South,180,1.3,2.9,83,0.00,,,0.00,WUHU216HW,2013-06-15 16:16:00,
2013-06-15 09:21:00,57.2,51.5,29.91,SE,135,1.1,2.2,81,0.00,,,0.00,WUHU216HW,2013-06-15 16:21:00,
2013-06-15 09:26:00,57.4,51.7,29.91,SSE,158,1.1,2.2,81,0.00,,,0.00,WUHU216HW,2013-06-15 16:26:00,
2013-06-15 09:31:00,57.7,52.0,29.91,SW,225,1.6,2.2,81,0.00,,,0.00,WUHU216HW,2013-06-15 16:31:00,
2013-06-15 09:36:00,57.9,51.8,29.91,SSW,203,1.8,2.5,80,0.00,,,0.00,WUHU216HW,2013-06-15 16:36:00,
2013-06-15 09:41:00,58.3,51.9,29.91,ESE,113,0.4,2.5,79,0.00,,,0.00,WUHU216HW,2013-06-15 16:41:00,
2013-06-15 09:46:00,58.3,51.9,29.91,SSW,203,0.4,2.9,79,0.00,,,0.00,WUHU216HW,2013-06-15 16:46:00,
2013-06-15 09:51:00,58.6,52.2,29.91,SSW,203,0.9,2.9,79,0.00,,,0.00,WUHU216HW,2013-06-15 16:51:00,
2013-06-15 09:56:00,59.0,52.6,29.91,SW,225,2.5,2.5,79,0.00,,,0.00,WUHU216HW,2013-06-15 16:56:00,
2013-06-15 10:01:00,59.3,52.5,29.91,SSW,203,1.3,3.4,78,0.00,,,0.00,WUHU216HW,2013-06-15 17:01:00,
2013-06-15 10:06:00,59.7,52.9,29.91,SSW,203,1.6,3.4,78,0.00,,,0.00,WUHU216HW,2013-06-15 17:06:00,
2013-06-15 10:11:00,60.1,53.0,29.91,SSW,203,2.0,3.1,77,0.00,,,0.00,WUHU216HW,2013-06-15 17:11:00,
2013-06-15 10:16:00,60.2,53.0,29.91,SSW,203,2.2,3.1,77,0.00,,,0.00,WUHU216HW,2013-06-15 17:16:00,
2013-06-15 10:21:00,60.6,53.1,29.91,SSW,203,0.7,4.5,76,0.00,,,0.00,WUHU216HW,2013-06-15 17:21:00,
2013-06-15 10:26:00,61.0,53.5,29.91,SSW,203,2.5,4.5,76,0.00,,,0.00,WUHU216HW,2013-06-15 17:26:00,
2013-06-15 10:31:00,61.1,53.2,29.90,SSW,203,4.9,5.1,75,0.00,,,0.00,WUHU216HW,2013-06-15 17:31:00,
2013-06-15 10:36:00,61.5,54.0,29.90,WSW,248,2.5,5.1,76,0.00,,,0.00,WUHU216HW,2013-06-15 17:36:00,
2013-06-15 10:41:00,61.7,54.2,29.90,SSW,203,2.2,4.9,76,0.00,,,0.00,WUHU216HW,2013-06-15 17:41:00,
2013-06-15 10:46:00,62.0,54.1,29.90,SW,225,3.4,4.7,75,0.00,,,0.00,WUHU216HW,2013-06-15 17:46:00,
2013-06-15 10:51:00,62.2,53.9,29.90,East,90,1.6,5.1,74,0.00,,,0.00,WUHU216HW,2013-06-15 17:51:00,
2013-06-15 10:56:00,62.4,54.1,29.90,South,180,2.9,5.1,74,0.00,,,0.00,WUHU216HW,2013-06-15 17:56:00,
2013-06-15 11:01:00,62.9,54.2,29.90,SSW,203,1.3,3.8,73,0.00,,,0.00,WUHU216HW,2013-06-15 18:01:00,
2013-06-15 11:06:00,63.1,54.4,29.90,South,180,2.5,2.9,73,0.00,,,0.00,WUHU216HW,2013-06-15 18:06:00,
2013-06-15 11:11:00,63.5,54.4,29.89,SE,135,1.8,2.7,72,0.00,,,0.00,WUHU216HW,2013-06-15 18:11:00,
2013-06-15 11:16:00,63.7,54.3,29.89,South,180,2.9,4.0,71,0.00,,,0.00,WUHU216HW,2013-06-15 18:16:00,
2013-06-15 11:21:00,64.0,54.6,29.89,SW,225,1.6,4.0,71,0.00,,,0.00,WUHU216HW,2013-06-15 18:21:00,
2013-06-15 11:26:00,64.2,54.4,29.89,South,180,1.1,3.8,70,0.00,,,0.00,WUHU216HW,2013-06-15 18:26:00,
2013-06-15 11:31:00,64.6,54.7,29.89,SW,225,0.4,2.5,70,0.00,,,0.00,WUHU216HW,2013-06-15 18:31:00,
2013-06-15 11:36:00,64.9,54.6,29.89,SW,225,2.0,2.7,69,0.00,,,0.00,WUHU216HW,2013-06-15 18:36:00,
2013-06-15 11:41:00,65.1,54.4,29.89,SSW,203,3.1,4.9,68,0.00,,,0.00,WUHU216HW,2013-06-15 18:41:00,
2013-06-15 11:46:00,65.5,54.8,29.89,SSW,203,2.2,4.9,68,0.00,,,0.00,WUHU216HW,2013-06-15 18:46:00,
2013-06-15 11:51:00,65.6,54.9,29.89,SW,225,2.7,4.5,68,0.00,,,0.00,WUHU216HW,2013-06-15 18:51:00,
2013-06-15 11:56:00,65.8,54.7,29.89,SSW,203,2.9,3.4,67,0.00,,,0.00,WUHU216HW,2013-06-15 18:56:00,
2013-06-15 12:01:00,66.2,54.7,29.89,SW,225,5.4,5.4,66,0.00,,,0.00,WUHU216HW,2013-06-15 19:01:00,
2013-06-15 12:06:00,66.2,54.7,29.89,SW,225,2.9,5.4,66,0.00,,,0.00,WUHU216HW,2013-06-15 19:06:00,
2013-06-15 12:11:00,66.5,55.0,29.89,SW,225,2.9,4.7,66,0.00,,,0.00,WUHU216HW,2013-06-15 19:11:00,
2013-06-15 12:16:00,66.5,54.5,29.89,SSW,203,1.6,4.7,65,0.00,,,0.00,WUHU216HW,2013-06-15 19:16:00,
2013-06-15 12:21:00,66.9,54.9,29.89,SSW,203,2.5,5.1,65,0.00,,,0.00,WUHU216HW,2013-06-15 19:21:00,
2013-06-15 12:26:00,67.1,55.1,29.88,South,180,1.8,5.1,65,0.00,,,0.00,WUHU216HW,2013-06-15 19:26:00,
2013-06-15 12:31:00,67.3,55.3,29.88,SSW,203,1.1,3.4,65,0.00,,,0.00,WUHU216HW,2013-06-15 19:31:00,
2013-06-15 12:36:00,67.4,55.4,29.88,WSW,248,0.4,3.4,65,0.00,,,0.00,WUHU216HW,2013-06-15 19:36:00,
2013-06-15 12:41:00,67.6,55.6,29.88,SW,225,2.5,6.3,65,0.00,,,0.00,WUHU216HW,2013-06-15 19:41:00,
2013-06-15 12:46:00,67.8,55.4,29.88,SW,225,1.8,6.3,64,0.00,,,0.00,WUHU216HW,2013-06-15 19:46:00,
2013-06-15 12:51:00,68.0,56.0,29.88,SW,225,2.7,4.9,65,0.00,,,0.00,WUHU216HW,2013-06-15 19:51:00,
2013-06-15 12:56:00,68.0,55.5,29.88,SW,225,5.1,5.1,64,0.00,,,0.00,WUHU216HW,2013-06-15 19:56:00,
2013-06-15 13:01:00,68.3,55.8,29.88,SW,225,3.8,5.1,64,0.00,,,0.00,WUHU216HW,2013-06-15 20:01:00,
2013-06-15 13:06:00,68.3,55.4,29.88,South,180,5.8,5.8,63,0.00,,,0.00,WUHU216HW,2013-06-15 20:06:00,
2013-06-15 13:11:00,68.3,55.8,29.88,SW,225,3.8,5.8,64,0.00,,,0.00,WUHU216HW,2013-06-15 20:11:00,
2013-06-15 13:16:00,68.5,55.6,29.88,SSW,203,4.5,5.8,63,0.00,,,0.00,WUHU216HW,2013-06-15 20:16:00,
2013-06-15 13:21:00,68.5,56.0,29.88,SSW,203,3.6,6.0,64,0.00,,,0.00,WUHU216HW,2013-06-15 20:21:00,
2013-06-15 13:26:00,68.7,56.2,29.88,NW,315,1.1,6.3,64,0.00,,,0.00,WUHU216HW,2013-06-15 20:26:00,
2013-06-15 13:31:00,68.9,56.4,29.88,WSW,248,1.6,6.3,64,0.00,,,0.00,WUHU216HW,2013-06-15 20:31:00,
2013-06-15 13:36:00,68.9,56.4,29.88,SE,135,0.7,5.6,64,0.00,,,0.00,WUHU216HW,2013-06-15 20:36:00,
2013-06-15 13:41:00,69.1,56.6,29.88,SW,225,2.7,5.6,64,0.00,,,0.00,WUHU216HW,2013-06-15 20:41:00,
2013-06-15 13:46:00,69.1,56.2,29.87,SSW,203,3.8,5.4,63,0.00,,,0.00,WUHU216HW,2013-06-15 20:46:00,
2013-06-15 13:51:00,69.1,56.6,29.87,SSW,203,1.1,5.8,64,0.00,,,0.00,WUHU216HW,2013-06-15 20:51:00,
2013-06-15 13:56:00,69.1,56.2,29.88,WSW,248,1.1,5.8,63,0.00,,,0.00,WUHU216HW,2013-06-15 20:56:00,
2013-06-15 14:01:00,69.2,56.3,29.87,SW,225,4.7,5.1,63,0.00,,,0.00,WUHU216HW,2013-06-15 21:01:00,
2013-06-15 14:06:00,69.2,56.3,29.87,SSW,203,3.8,5.1,63,0.00,,,0.00,WUHU216HW,2013-06-15 21:06:00,
2013-06-15 14:11:00,69.4,56.9,29.87,SSW,203,1.8,5.1,64,0.00,,,0.00,WUHU216HW,2013-06-15 21:11:00,
2013-06-15 14:16:00,69.4,56.4,29.87,SW,225,1.8,5.1,63,0.00,,,0.00,WUHU216HW,2013-06-15 21:16:00,
2013-06-15 14:21:00,69.4,56.4,29.87,SW,225,4.3,5.1,63,0.00,,,0.00,WUHU216HW,2013-06-15 21:21:00,
2013-06-15 14:26:00,69.6,56.6,29.87,SW,225,5.4,6.3,63,0.00,,,0.00,WUHU216HW,2013-06-15 21:26:00,
2013-06-15 14:31:00,69.6,56.6,29.87,SSW,203,3.6,6.3,63,0.00,,,0.00,WUHU216HW,2013-06-15 21:31:00,
2013-06-15 14:36:00,69.8,56.8,29.87,SW,225,2.2,6.3,63,0.00,,,0.00,WUHU216HW,2013-06-15 21:36:00,
2013-06-15 14:41:00,69.8,57.3,29.87,SW,225,2.0,4.9,64,0.00,,,0.00,WUHU216HW,2013-06-15 21:41:00,
2013-06-15 14:46:00,70.0,57.5,29.86,SSE,158,1.8,3.6,64,0.00,,,0.00,WUHU216HW,2013-06-15 21:46:00,
2013-06-15 14:51:00,70.0,57.5,29.86,SSE,158,2.9,3.6,64,0.00,,,0.00,WUHU216HW,2013-06-15 21:51:00,
2013-06-15 14:56:00,70.1,57.1,29.86,SW,225,5.4,5.8,63,0.00,,,0.00,WUHU216HW,2013-06-15 21:56:00,
2013-06-15 15:01:00,70.1,57.1,29.86,SW,225,4.0,6.0,63,0.00,,,0.00,WUHU216HW,2013-06-15 22:01:00,
2013-06-15 15:06:00,70.1,56.7,29.86,SW,225,4.0,6.0,62,0.00,,,0.00,WUHU216HW,2013-06-15 22:06:00,
2013-06-15 15:11:00,70.1,56.7,29.86,South,180,1.3,5.6,62,0.00,,,0.00,WUHU216HW,2013-06-15 22:11:00,
2013-06-15 15:16:00,70.3,56.4,29.86,SSW,203,4.7,6.3,61,0.00,,,0.00,WUHU216HW,2013-06-15 22:16:00,
2013-06-15 15:21:00,70.3,56.9,29.86,SSW,203,0.7,6.3,62,0.00,,,0.00,WUHU216HW,2013-06-15 22:21:00,
2013-06-15 15:26:00,70.3,56.9,29.86,SW,225,3.6,4.7,62,0.00,,,0.00,WUHU216HW,2013-06-15 22:26:00,
2013-06-15 15:31:00,70.3,56.9,29.86,SW,225,3.4,4.5,62,0.00,,,0.00,WUHU216HW,2013-06-15 22:31:00,
2013-06-15 15:36:00,70.3,56.4,29.86,SSW,203,2.7,4.9,61,0.00,,,0.00,WUHU216HW,2013-06-15 22:36:00,
2013-06-15 15:41:00,70.3,56.9,29.86,South,180,0.9,4.9,62,0.00,,,0.00,WUHU216HW,2013-06-15 22:41:00,
2013-06-15 15:46:00,70.5,57.0,29.86,SW,225,4.3,4.3,62,0.00,,,0.00,WUHU216HW,2013-06-15 22:46:00,
2013-06-15 15:51:00,70.5,56.6,29.86,SSW,203,3.1,6.5,61,0.00,,,0.00,WUHU216HW,2013-06-15 22:51:00,
2013-06-15 15:56:00,70.5,56.6,29.86,SW,225,4.7,6.5,61,0.00,,,0.00,WUHU216HW,2013-06-15 22:56:00,
2013-06-15 16:01:00,70.5,56.6,29.86,SW,225,3.1,6.3,61,0.00,,,0.00,WUHU216HW,2013-06-15 23:01:00,
2013-06-15 16:06:00,70.5,56.6,29.86,SW,225,3.8,5.1,61,0.00,,,0.00,WUHU216HW,2013-06-15 23:06:00,
2013-06-15 16:11:00,70.7,56.8,29.86,SW,225,1.8,4.5,61,0.00,,,0.00,WUHU216HW,2013-06-15 23:11:00,
2013-06-15 16:16:00,70.7,56.8,29.86,SW,225,4.9,5.1,61,0.00,,,0.00,WUHU216HW,2013-06-15 23:16:00,
2013-06-15 16:21:00,70.9,57.0,29.86,SW,225,3.1,6.3,61,0.00,,,0.00,WUHU216HW,2013-06-15 23:21:00,
2013-06-15 16:26:00,71.0,57.1,29.86,SSW,203,1.8,6.3,61,0.00,,,0.00,WUHU216HW,2013-06-15 23:26:00,
2013-06-15 16:31:00,71.2,56.8,29.86,SW,225,1.3,5.6,60,0.00,,,0.00,WUHU216HW,2013-06-15 23:31:00,
2013-06-15 16:36:00,71.4,57.0,29.85,SSW,203,3.6,3.8,60,0.00,,,0.00,WUHU216HW,2013-06-15 23:36:00,
2013-06-15 16:41:00,71.4,57.0,29.86,SSW,203,3.1,4.3,60,0.00,,,0.00,WUHU216HW,2013-06-15 23:41:00,
2013-06-15 16:46:00,71.2,56.8,29.86,SW,225,2.9,4.9,60,0.00,,,0.00,WUHU216HW,2013-06-15 23:46:00,
2013-06-15 16:51:00,71.2,56.8,29.86,WSW,248,1.6,4.9,60,0.00,,,0.00,WUHU216HW,2013-06-15 23:51:00,
2013-06-15 16:56:00,71.2,56.8,29.86,SSW,203,1.1,3.8,60,0.00,,,0.00,WUHU216HW,2013-06-15 23:56:00,
2013-06-15 17:01:00,71.2,56.8,29.86,SSW,203,1.8,2.7,60,0.00,,,0.00,WUHU216HW,2013-06-16 00:01:00,
2013-06-15 17:06:00,71.2,57.3,29.86,SSW,203,1.1,2.7,61,0.00,,,0.00,WUHU216HW,2013-06-16 00:06:00,
2013-06-15 17:11:00,71.2,56.8,29.86,SW,225,3.1,4.0,60,0.00,,,0.00,WUHU216HW,2013-06-16 00:11:00,
2013-06-15 17:16:00,71.2,56.8,29.87,SW,225,1.1,4.0,60,0.00,,,0.00,WUHU216HW,2013-06-16 00:16:00,
2013-06-15 17:21:00,70.9,56.5,29.86,SW,225,4.0,4.0,60,0.00,,,0.00,WUHU216HW,2013-06-16 00:21:00,
2013-06-15 17:26:00,71.0,56.6,29.87,SW,225,2.5,4.0,60,0.00,,,0.00,WUHU216HW,2013-06-16 00:26:00,
2013-06-15 17:31:00,70.9,56.5,29.87,SW,225,2.9,4.0,60,0.00,,,0.00,WUHU216HW,2013-06-16 00:31:00,
2013-06-15 17:36:00,70.9,57.0,29.87,SW,225,2.5,4.0,61,0.00,,,0.00,WUHU216HW,2013-06-16 00:36:00,
2013-06-15 17:41:00,70.7,56.8,29.87,SW,225,2.7,3.4,61,0.00,,,0.00,WUHU216HW,2013-06-16 00:41:00,
2013-06-15 17:46:00,70.5,56.6,29.87,SSW,203,4.5,4.7,61,0.00,,,0.00,WUHU216HW,2013-06-16 00:46:00,
2013-06-15 17:51:00,70.5,56.6,29.87,SW,225,2.2,4.7,61,0.00,,,0.00,WUHU216HW,2013-06-16 00:51:00,
2013-06-15 17:56:00,70.3,56.4,29.87,SSW,203,1.8,4.5,61,0.00,,,0.00,WUHU216HW,2013-06-16 00:56:00,
2013-06-15 18:01:00,70.1,56.2,29.88,SW,225,3.4,3.8,61,0.00,,,0.00,WUHU216HW,2013-06-16 01:01:00,
2013-06-15 18:06:00,70.0,56.1,29.88,SSW,203,2.9,3.4,61,0.00,,,0.00,WUHU216HW,2013-06-16 01:06:00,
2013-06-15 18:11:00,69.8,55.9,29.88,SW,225,3.1,3.8,61,0.00,,,0.00,WUHU216HW,2013-06-16 01:11:00,
2013-06-15 18:16:00,69.8,56.4,29.88,SW,225,1.6,4.7,62,0.00,,,0.00,WUHU216HW,2013-06-16 01:16:00,
2013-06-15 18:21:00,69.6,56.2,29.88,SW,225,1.8,4.7,62,0.00,,,0.00,WUHU216HW,2013-06-16 01:21:00,
2013-06-15 18:26:00,69.6,56.2,29.88,SW,225,2.5,3.6,62,0.00,,,0.00,WUHU216HW,2013-06-16 01:26:00,
2013-06-15 18:31:00,69.4,55.5,29.88,SSW,203,1.6,3.4,61,0.00,,,0.00,WUHU216HW,2013-06-16 01:31:00,
2013-06-15 18:36:00,69.4,55.5,29.88,SW,225,2.2,3.6,61,0.00,,,0.00,WUHU216HW,2013-06-16 01:36:00,
2013-06-15 18:41:00,69.4,55.5,29.88,SW,225,1.8,3.6,61,0.00,,,0.00,WUHU216HW,2013-06-16 01:41:00,
2013-06-15 18:46:00,69.2,55.4,29.88,SW,225,1.8,3.6,61,0.00,,,0.00,WUHU216HW,2013-06-16 01:46:00,
2013-06-15 18:51:00,69.1,55.7,29.88,SW,225,1.8,3.6,62,0.00,,,0.00,WUHU216HW,2013-06-16 01:51:00,
2013-06-15 18:56:00,69.1,55.7,29.88,SW,225,2.0,2.9,62,0.00,,,0.00,WUHU216HW,2013-06-16 01:56:00,
2013-06-15 19:01:00,69.1,55.7,29.88,WSW,248,1.8,2.9,62,0.00,,,0.00,WUHU216HW,2013-06-16 02:01:00,
2013-06-15 19:06:00,68.9,56.0,29.88,SW,225,0.4,2.5,63,0.00,,,0.00,WUHU216HW,2013-06-16 02:06:00,
2013-06-15 19:11:00,68.9,56.4,29.88,WNW,293,0.0,1.8,64,0.00,,,0.00,WUHU216HW,2013-06-16 02:11:00,
2013-06-15 19:16:00,68.7,56.2,29.88,WNW,293,0.0,0.9,64,0.00,,,0.00,WUHU216HW,2013-06-16 02:16:00,
2013-06-15 19:21:00,68.5,56.5,29.88,WNW,293,0.0,0.4,65,0.00,,,0.00,WUHU216HW,2013-06-16 02:21:00,
2013-06-15 19:26:00,68.3,56.3,29.89,WNW,293,0.0,0.2,65,0.00,,,0.00,WUHU216HW,2013-06-16 02:26:00,
2013-06-15 19:31:00,68.3,56.3,29.89,WNW,293,0.0,0.2,65,0.00,,,0.00,WUHU216HW,2013-06-16 02:31:00,
2013-06-15 19:36:00,68.2,56.6,29.89,SW,225,0.4,1.3,66,0.00,,,0.00,WUHU216HW,2013-06-16 02:36:00,
2013-06-15 19:41:00,68.0,56.4,29.89,SSW,203,0.4,1.3,66,0.00,,,0.00,WUHU216HW,2013-06-16 02:41:00,
2013-06-15 19:46:00,68.0,56.4,29.89,SSW,203,0.0,1.1,66,0.00,,,0.00,WUHU216HW,2013-06-16 02:46:00,
2013-06-15 19:51:00,67.8,56.2,29.89,WSW,248,0.0,0.7,66,0.00,,,0.00,WUHU216HW,2013-06-16 02:51:00,
2013-06-15 19:56:00,67.6,56.0,29.89,WSW,248,0.0,0.7,66,0.00,,,0.00,WUHU216HW,2013-06-16 02:56:00,
2013-06-15 20:01:00,67.4,56.2,29.89,SW,225,0.0,0.4,67,0.00,,,0.00,WUHU216HW,2013-06-16 03:01:00,
2013-06-15 20:06:00,67.3,56.1,29.89,SW,225,0.0,0.4,67,0.00,,,0.00,WUHU216HW,2013-06-16 03:06:00,
2013-06-15 20:11:00,67.3,56.1,29.89,SSW,203,0.0,0.4,67,0.00,,,0.00,WUHU216HW,2013-06-16 03:11:00,
2013-06-15 20:16:00,67.1,56.0,29.89,SSW,203,0.0,0.4,67,0.00,,,0.00,WUHU216HW,2013-06-16 03:16:00,
2013-06-15 20:21:00,66.9,55.8,29.89,ENE,68,0.4,0.9,67,0.00,,,0.00,WUHU216HW,2013-06-16 03:21:00,
2013-06-15 20:26:00,66.5,55.8,29.89,ENE,68,0.0,0.9,68,0.00,,,0.00,WUHU216HW,2013-06-16 03:26:00,
2013-06-15 20:31:00,66.5,55.8,29.90,ENE,68,0.0,0.4,68,0.00,,,0.00,WUHU216HW,2013-06-16 03:31:00,
2013-06-15 20:36:00,66.2,55.5,29.90,ENE,68,0.0,0.0,68,0.00,,,0.00,WUHU216HW,2013-06-16 03:36:00,
2013-06-15 20:41:00,66.0,55.3,29.90,ENE,68,0.0,0.0,68,0.00,,,0.00,WUHU216HW,2013-06-16 03:41:00,
2013-06-15 20:46:00,65.8,55.5,29.90,ENE,68,0.0,0.2,69,0.00,,,0.00,WUHU216HW,2013-06-16 03:46:00,
2013-06-15 20:51:00,65.3,55.0,29.90,ENE,68,0.0,0.2,69,0.00,,,0.00,WUHU216HW,2013-06-16 03:51:00,
2013-06-15 20:56:00,65.1,54.8,29.89,North,0,0.4,0.4,69,0.00,,,0.00,WUHU216HW,2013-06-16 03:56:00,
2013-06-15 21:01:00,64.6,54.7,29.90,North,0,0.4,0.4,70,0.00,,,0.00,WUHU216HW,2013-06-16 04:01:00,
2013-06-15 21:06:00,64.2,54.4,29.89,NNW,338,0.2,0.7,70,0.00,,,0.00,WUHU216HW,2013-06-16 04:06:00,
2013-06-15 21:11:00,63.8,54.4,29.90,NNW,338,0.2,0.7,71,0.00,,,0.00,WUHU216HW,2013-06-16 04:11:00,
2013-06-15 21:16:00,63.5,54.4,29.90,NNW,338,0.0,0.2,72,0.00,,,0.00,WUHU216HW,2013-06-16 04:16:00,
2013-06-15 21:21:00,63.1,54.1,29.90,NNW,338,0.0,0.2,72,0.00,,,0.00,WUHU216HW,2013-06-16 04:21:00,
2013-06-15 21:26:00,62.8,54.1,29.90,NNW,338,0.0,0.4,73,0.00,,,0.00,WUHU216HW,2013-06-16 04:26:00,
2013-06-15 21:31:00,62.4,53.8,29.90,NNW,338,0.0,0.4,73,0.00,,,0.00,WUHU216HW,2013-06-16 04:31:00,
2013-06-15 21:36:00,62.0,53.7,29.91,NNW,338,0.0,0.4,74,0.00,,,0.00,WUHU216HW,2013-06-16 04:36:00,
2013-06-15 21:41:00,61.7,53.4,29.91,NNW,338,0.2,0.4,74,0.00,,,0.00,WUHU216HW,2013-06-16 04:41:00,
2013-06-15 21:46:00,61.5,53.3,29.91,NNW,338,0.0,0.4,74,0.00,,,0.00,WUHU216HW,2013-06-16 04:46:00,
2013-06-15 21:51:00,61.1,52.9,29.91,NNW,338,0.0,0.4,74,0.00,,,0.00,WUHU216HW,2013-06-16 04:51:00,
2013-06-15 21:56:00,61.0,53.1,29.91,NNW,338,0.0,0.4,75,0.00,,,0.00,WUHU216HW,2013-06-16 04:56:00,
2013-06-15 22:01:00,60.8,52.9,29.91,NNW,338,0.2,0.4,75,0.00,,,0.00,WUHU216HW,2013-06-16 05:01:00,
2013-06-15 22:06:00,60.6,53.1,29.91,NNW,338,0.4,0.4,76,0.00,,,0.00,WUHU216HW,2013-06-16 05:06:00,
2013-06-15 22:11:00,60.4,52.9,29.92,NNW,338,0.2,0.4,76,0.00,,,0.00,WUHU216HW,2013-06-16 05:11:00,
2013-06-15 22:16:00,60.1,52.6,29.92,NNW,338,0.0,0.4,76,0.00,,,0.00,WUHU216HW,2013-06-16 05:16:00,
2013-06-15 22:21:00,60.1,53.0,29.92,NNW,338,0.4,0.7,77,0.00,,,0.00,WUHU216HW,2013-06-16 05:21:00,
2013-06-15 22:26:00,59.9,52.8,29.92,NNW,338,0.0,0.7,77,0.00,,,0.00,WUHU216HW,2013-06-16 05:26:00,
2013-06-15 22:31:00,59.7,52.9,29.92,NNW,338,0.2,0.7,78,0.00,,,0.00,WUHU216HW,2013-06-16 05:31:00,
2013-06-15 22:36:00,59.5,52.7,29.92,NNW,338,0.2,0.4,78,0.00,,,0.00,WUHU216HW,2013-06-16 05:36:00,
2013-06-15 22:41:00,59.3,52.5,29.92,NNW,338,0.0,0.4,78,0.00,,,0.00,WUHU216HW,2013-06-16 05:41:00,
2013-06-15 22:46:00,59.2,52.8,29.92,NNW,338,0.4,0.4,79,0.00,,,0.00,WUHU216HW,2013-06-16 05:46:00,
2013-06-15 22:51:00,59.0,52.6,29.92,NNW,338,0.0,0.4,79,0.00,,,0.00,WUHU216HW,2013-06-16 05:51:00,
2013-06-15 22:56:00,59.0,52.6,29.92,NNW,338,0.0,0.4,79,0.00,,,0.00,WUHU216HW,2013-06-16 05:56:00,
2013-06-15 23:01:00,58.8,52.4,29.92,NNW,338,0.0,0.2,79,0.00,,,0.00,WUHU216HW,2013-06-16 06:01:00,
2013-06-15 23:06:00,58.6,52.5,29.92,NNW,338,0.4,0.4,80,0.00,,,0.00,WUHU216HW,2013-06-16 06:06:00,
2013-06-15 23:11:00,58.6,52.5,29.93,NNW,338,0.0,0.4,80,0.00,,,0.00,WUHU216HW,2013-06-16 06:11:00,
2013-06-15 23:16:00,58.4,52.3,29.93,NNW,338,0.0,0.4,80,0.00,,,0.00,WUHU216HW,2013-06-16 06:16:00,
2013-06-15 23:21:00,58.4,52.6,29.93,NNW,338,0.0,0.0,81,0.00,,,0.00,WUHU216HW,2013-06-16 06:21:00,
2013-06-15 23:26:00,58.4,52.6,29.93,NNW,338,0.0,0.0,81,0.00,,,0.00,WUHU216HW,2013-06-16 06:26:00,
2013-06-15 23:31:00,58.3,52.5,29.93,NNW,338,0.0,0.2,81,0.00,,,0.00,WUHU216HW,2013-06-16 06:31:00,
2013-06-15 23:36:00,58.1,52.3,29.93,NNW,338,0.0,0.2,81,0.00,,,0.00,WUHU216HW,2013-06-16 06:36:00,
2013-06-15 23:41:00,57.9,52.1,29.93,NNW,338,0.0,0.0,81,0.00,,,0.00,WUHU216HW,2013-06-16 06:41:00,
2013-06-15 23:46:00,57.9,52.1,29.93,NNW,338,0.0,0.2,81,0.00,,,0.00,WUHU216HW,2013-06-16 06:46:00,
2013-06-15 23:51:00,57.7,52.3,29.93,NNW,338,0.0,0.2,82,0.00,,,0.00,WUHU216HW,2013-06-16 06:51:00,
2013-06-15 23:56:00,57.5,52.1,29.93,NNW,338,0.0,0.4,82,0.00,,,0.00,WUHU216HW,2013-06-16 06:56:00,